Time;durP1;ratioP1;P1;durP2;ratioP2;P2;SDS_P1;SDS_P2;PMS_P1;PMS_P2;Temp;Humidity;BMP_temperature;BMP_pressure;BME280_temperature;BME280_humidity;BME280_pressure;Samples;Min_cycle;Max_cycle;Signal;HPM_P1;HPM_P2
2023/01/18 00:01:06;;;;;;;1999.90;999.90;;;;;;;1.11;100.00;95006.28;4954118;28;20523;-75
2023/01/18 00:03:32;;;;;;;1999.90;999.90;;;;;;;0.96;100.00;95012.84;4954149;28;20031;-76
2023/01/18 00:06:00;;;;;;;1999.90;999.90;;;;;;;0.89;100.00;95020.53;4953919;28;20054;-75
2023/01/18 00:08:26;;;;;;;1999.90;999.90;;;;;;;0.92;100.00;95022.63;4953835;28;20042;-75
2023/01/18 00:10:52;;;;;;;1999.90;999.90;;;;;;;0.79;100.00;95038.81;4953835;28;20433;-74
2023/01/18 00:13:17;;;;;;;1999.90;999.90;;;;;;;0.54;100.00;95043.69;4953928;28;20030;-76
2023/01/18 00:15:42;;;;;;;1999.90;999.90;;;;;;;0.61;100.00;95058.59;4953629;28;20088;-76
2023/01/18 00:18:08;;;;;;;1999.90;999.90;;;;;;;0.54;100.00;95061.72;4953719;28;20031;-76
2023/01/18 00:20:33;;;;;;;1999.90;999.90;;;;;;;0.42;100.00;95067.63;4954152;28;20038;-74
2023/01/18 00:23:03;;;;;;;1999.90;999.90;;;;;;;0.42;100.00;95056.06;4954010;28;20038;-74
2023/01/18 00:25:29;;;;;;;1999.90;999.90;;;;;;;0.53;100.00;95060.91;4953815;28;20468;-74
2023/01/18 00:27:55;;;;;;;1999.90;999.90;;;;;;;0.61;100.00;95058.59;4953617;28;20440;-73
2023/01/18 00:30:24;;;;;;;1999.90;999.90;;;;;;;0.71;100.00;95069.94;4953584;28;20081;-76
2023/01/18 00:32:54;;;;;;;1999.90;999.90;;;;;;;0.85;100.00;95064.50;4953643;28;20023;-77
2023/01/18 00:35:20;;;;;;;1999.90;999.90;;;;;;;0.93;100.00;95063.78;4954170;28;20029;-74
2023/01/18 00:37:47;;;;;;;1999.90;999.90;;;;;;;0.98;100.00;95066.34;4953622;28;20062;-76
2023/01/18 00:40:13;;;;;;;1999.90;999.90;;;;;;;0.87;100.00;95065.00;4953426;28;20161;-75
2023/01/18 00:45:24;;;;;;;1999.90;999.90;;;;;;;0.96;100.00;95082.78;4953430;28;20190;-74
2023/01/18 00:47:49;;;;;;;1999.90;999.90;;;;;;;1.04;100.00;95086.63;4953096;28;20528;-73
2023/01/18 00:50:14;;;;;;;1999.90;999.90;;;;;;;1.06;100.00;95082.56;4953370;28;20596;-75
2023/01/18 00:52:45;;;;;;;1999.90;999.90;;;;;;;1.04;100.00;95090.13;4953123;28;20077;-75
2023/01/18 00:55:11;;;;;;;1999.90;999.90;;;;;;;1.03;100.00;95096.59;4953382;28;20114;-74
2023/01/18 00:57:36;;;;;;;1999.90;999.90;;;;;;;0.88;100.00;95070.06;4953405;28;20039;-74
2023/01/18 01:00:03;;;;;;;1999.90;999.90;;;;;;;0.96;100.00;95092.75;4956147;28;20035;-74
2023/01/18 01:02:28;;;;;;;1999.90;999.90;;;;;;;0.96;100.00;95095.44;4955988;28;20489;-75
2023/01/18 01:07:37;;;;;;;1999.90;999.90;;;;;;;1.05;100.00;95110.56;4953006;28;20051;-75
2023/01/18 01:10:07;;;;;;;1999.90;999.90;;;;;;;1.13;100.00;95109.00;4952727;28;20031;-76
2023/01/18 01:26:13;;;;;;;1999.90;999.90;;;;;;;0.94;100.00;95098.44;4933517;29;20119;-74
2023/01/18 01:28:41;;;;;;;1999.90;999.90;;;;;;;0.89;100.00;95089.69;4932618;29;20118;-75
2023/01/18 01:31:09;;;;;;;1999.90;999.90;;;;;;;0.85;100.00;95091.38;4933508;29;20115;-75
2023/01/18 01:33:35;;;;;;;1999.90;999.90;;;;;;;0.90;100.00;95102.84;4933351;29;20029;-76
2023/01/18 01:36:07;;;;;;;1999.90;999.90;;;;;;;0.87;100.00;95111.53;4933437;29;20034;-75
2023/01/18 01:38:33;;;;;;;1999.90;999.90;;;;;;;0.94;100.00;95117.25;4933351;29;20039;-74
2023/01/18 01:41:05;;;;;;;1999.90;999.90;;;;;;;1.02;100.00;95121.94;4933185;29;20031;-79
2023/01/18 01:43:48;;;;;;;1999.90;999.90;;;;;;;1.04;100.00;95116.22;4933432;29;20115;-76
2023/01/18 01:46:31;;;;;;;1999.90;999.90;;;;;;;1.08;100.00;95104.56;4933449;29;20034;-76
2023/01/18 01:49:20;;;;;;;1999.90;999.90;;;;;;;1.11;100.00;95110.44;4933259;29;20039;-75
2023/01/18 01:51:50;;;;;;;1999.90;999.90;;;;;;;0.95;100.00;95108.09;4933675;29;20032;-75
2023/01/18 01:54:22;;;;;;;1999.90;999.90;;;;;;;1.01;100.00;95112.25;4931980;29;20032;-74
2023/01/18 01:56:52;;;;;;;1999.90;999.90;;;;;;;1.00;100.00;95094.53;4933382;29;20508;-76
2023/01/18 01:59:18;;;;;;;1999.90;999.90;;;;;;;1.03;100.00;95093.91;4933322;29;20032;-76
2023/01/18 02:01:45;;;;;;;1999.90;999.90;;;;;;;0.95;100.00;95102.72;4933407;29;20489;-75
2023/01/18 02:04:11;;;;;;;1999.90;999.90;;;;;;;1.02;100.00;95113.88;4933326;29;20119;-76
2023/01/18 02:06:38;;;;;;;1999.90;999.90;;;;;;;0.93;100.00;95118.38;4933258;29;20039;-76
2023/01/18 02:09:13;;;;;;;1999.90;999.90;;;;;;;1.00;100.00;95126.81;4933634;29;20050;-74
2023/01/18 02:11:40;;;;;;;1999.90;999.90;;;;;;;1.00;100.00;95118.72;4933284;29;20548;-75
2023/01/18 02:14:09;;;;;;;1999.90;999.90;;;;;;;1.06;100.00;95122.13;4933332;29;20036;-74
2023/01/18 02:16:59;;;;;;;1999.90;999.90;;;;;;;1.13;100.00;95119.78;4933208;29;20366;-74
2023/01/18 02:19:30;;;;;;;1999.90;999.90;;;;;;;1.06;100.00;95125.63;4933041;29;20035;-74
2023/01/18 02:22:03;;;;;;;1999.90;999.90;;;;;;;1.08;100.00;95111.84;4933600;29;20039;-74
2023/01/18 02:24:46;;;;;;;1999.90;999.90;;;;;;;1.03;100.00;95114.66;4933605;29;20404;-73
2023/01/18 02:27:24;;;;;;;1999.90;999.90;;;;;;;1.01;100.00;95120.34;4932984;29;20472;-74
2023/01/18 02:29:52;;;;;;;1999.90;999.90;;;;;;;1.06;100.00;95120.22;4936701;29;20118;-73
2023/01/18 02:32:29;;;;;;;1999.90;999.90;;;;;;;1.01;100.00;95133.78;4951925;29;20035;-74
2023/01/18 02:35:05;;;;;;;1999.90;999.90;;;;;;;1.08;100.00;95128.00;4941794;29;20032;-74
2023/01/18 02:37:43;;;;;;;1999.90;999.90;;;;;;;1.08;100.00;95138.75;4932783;29;20063;-74
2023/01/18 02:40:17;;;;;;;1999.90;999.90;;;;;;;1.14;100.00;95136.72;4934030;29;20056;-73
2023/01/18 02:48:21;;;;;;;1999.90;999.90;;;;;;;1.13;100.00;95106.31;4954787;28;20102;-75
2023/01/18 02:50:47;;;;;;;1999.90;999.90;;;;;;;1.14;100.00;95090.97;4937890;29;20073;-76
2023/01/18 02:53:14;;;;;;;1999.90;999.90;;;;;;;1.03;100.00;95091.22;4955183;28;20493;-74
2023/01/18 02:55:42;;;;;;;1999.90;999.90;;;;;;;0.97;100.00;95100.50;4954950;28;20027;-75
2023/01/18 02:58:20;;;;;;;1999.90;999.90;;;;;;;0.91;100.00;95103.63;4937765;28;20063;-76
2023/01/18 03:00:53;;;;;;;1999.90;999.90;;;;;;;0.89;100.00;95122.78;4952428;28;20141;-74
2023/01/18 03:03:21;;;;;;;1999.90;999.90;;;;;;;0.90;100.00;95132.44;4954950;28;20057;-74
2023/01/18 03:05:48;;;;;;;1999.90;999.90;;;;;;;0.94;100.00;95138.78;4955220;28;20027;-76
2023/01/18 03:08:41;;;;;;;1999.90;999.90;;;;;;;0.99;100.00;95137.88;4955036;28;20062;-77
2023/01/18 03:11:17;;;;;;;1999.90;999.90;;;;;;;0.83;100.00;95137.44;4955721;28;20538;-75
2023/01/18 03:13:56;;;;;;;1999.90;999.90;;;;;;;0.85;100.00;95148.69;4954525;28;20034;-76
2023/01/18 03:16:25;;;;;;;1999.90;999.90;;;;;;;0.94;100.00;95151.47;4954690;28;20035;-74
2023/01/18 03:19:04;;;;;;;1999.90;999.90;;;;;;;0.98;100.00;95155.91;4954797;28;20027;-76
2023/01/18 03:21:46;;;;;;;1999.90;999.90;;;;;;;0.96;100.00;95158.13;4955006;28;20469;-75
2023/01/18 03:24:14;;;;;;;1999.90;999.90;;;;;;;0.87;100.00;95159.94;4954277;28;20031;-74
2023/01/18 03:26:45;;;;;;;1999.90;999.90;;;;;;;0.99;100.00;95162.91;4954382;29;20158;-73
2023/01/18 03:35:02;;;;;;;1999.90;999.90;;;;;;;0.98;100.00;95169.38;4954342;29;20109;-74
2023/01/18 03:37:37;;;;;;;1999.90;999.90;;;;;;;1.10;100.00;95176.13;4954430;29;20035;-75
2023/01/18 03:40:09;;;;;;;1999.90;999.90;;;;;;;1.16;100.00;95183.00;4954023;28;20035;-74
2023/01/18 03:42:50;;;;;;;1999.90;999.90;;;;;;;1.11;100.00;95193.84;4953864;28;20031;-74
2023/01/18 03:45:24;;;;;;;1999.90;999.90;;;;;;;1.15;100.00;95192.97;4954198;28;20034;-73
2023/01/18 03:47:49;;;;;;;1999.90;999.90;;;;;;;1.16;100.00;95201.84;4954225;28;20094;-75
2023/01/18 03:50:42;;;;;;;1999.90;999.90;;;;;;;1.23;100.00;95210.25;4953854;28;20035;-74
2023/01/18 03:53:15;;;;;;;1999.90;999.90;;;;;;;1.22;100.00;95214.88;4918301;28;20086;-76
2023/01/18 03:55:55;;;;;;;1999.90;999.90;;;;;;;1.16;100.00;95221.44;4953645;28;20039;-76
2023/01/18 03:58:29;;;;;;;1999.90;999.90;;;;;;;1.24;100.00;95230.69;4953988;28;21854;-75
2023/01/18 04:00:54;;;;;;;1999.90;999.90;;;;;;;1.28;100.00;95235.19;4954389;28;20027;-75
2023/01/18 04:03:19;;;;;;;1999.90;999.90;;;;;;;1.25;100.00;95235.00;4954039;28;20079;-75
2023/01/18 04:05:45;;;;;;;1999.90;999.90;;;;;;;1.22;100.00;95224.84;4953424;28;20039;-74
2023/01/18 04:08:10;;;;;;;1999.90;999.90;;;;;;;1.14;100.00;95217.47;4953679;28;20086;-76
2023/01/18 04:10:35;;;;;;;1999.90;999.90;;;;;;;1.10;100.00;95224.56;4953789;28;20027;-76
2023/01/18 04:13:01;;;;;;;1999.90;999.90;;;;;;;1.14;100.00;95244.38;4969728;28;20035;-76
2023/01/18 04:15:26;;;;;;;1999.90;999.90;;;;;;;1.12;100.00;95244.69;4974912;28;20665;-78
2023/01/18 04:17:54;;;;;;;1999.90;999.90;;;;;;;1.18;100.00;95242.69;4957827;28;20041;-78
2023/01/18 04:20:20;;;;;;;1999.90;999.90;;;;;;;1.25;100.00;95240.38;4953625;29;20035;-75
2023/01/18 04:22:53;;;;;;;1999.90;999.90;;;;;;;1.21;100.00;95244.78;4954199;29;20090;-75
2023/01/18 04:25:19;;;;;;;1999.90;999.90;;;;;;;1.22;100.00;95238.28;4952861;29;20050;-75
2023/01/18 04:27:44;;;;;;;1999.90;999.90;;;;;;;1.21;100.00;95236.69;4953562;29;20131;-75
2023/01/18 04:30:10;;;;;;;1999.90;999.90;;;;;;;1.23;100.00;95246.06;4953205;29;20042;-74
2023/01/18 04:32:35;;;;;;;1999.90;999.90;;;;;;;1.17;100.00;95238.38;4953008;29;20038;-76
2023/01/18 04:35:00;;;;;;;1999.90;999.90;;;;;;;1.08;100.00;95252.56;4953038;29;20484;-73
2023/01/18 04:37:29;;;;;;;1999.90;999.90;;;;;;;1.18;100.00;95251.56;4935998;28;20027;-74
2023/01/18 04:39:54;;;;;;;1999.90;999.90;;;;;;;1.22;100.00;95251.75;4953189;28;20031;-75
2023/01/18 04:42:19;;;;;;;1999.90;999.90;;;;;;;1.14;100.00;95260.53;4953379;28;20043;-74
2023/01/18 04:44:45;;;;;;;1999.90;999.90;;;;;;;1.19;100.00;95277.34;4953227;28;20388;-75
2023/01/18 04:47:10;;;;;;;1999.90;999.90;;;;;;;1.21;100.00;95282.44;4952921;28;20114;-74
2023/01/18 04:49:36;;;;;;;1999.90;999.90;;;;;;;1.23;100.00;95291.00;4952979;28;20035;-77
2023/01/18 04:52:02;;;;;;;1999.90;999.90;;;;;;;1.20;100.00;95294.31;4953262;28;20059;-76
2023/01/18 04:54:27;;;;;;;1999.90;999.90;;;;;;;1.30;100.00;95297.59;4953953;28;20098;-77
2023/01/18 04:56:53;;;;;;;1999.90;999.90;;;;;;;1.15;100.00;95300.63;4953539;28;20053;-76
2023/01/18 04:59:18;;;;;;;1999.90;999.90;;;;;;;1.22;100.00;95303.69;4952777;28;20031;-77
2023/01/18 05:01:43;;;;;;;1999.90;999.90;;;;;;;1.30;100.00;95312.94;4952892;28;20031;-75
2023/01/18 05:04:09;;;;;;;1999.90;999.90;;;;;;;1.28;100.00;95307.88;4952565;28;20118;-75
2023/01/18 05:06:34;;;;;;;1999.90;999.90;;;;;;;1.29;100.00;95316.72;4935573;28;20030;-74
2023/01/18 05:09:00;;;;;;;1999.90;999.90;;;;;;;1.24;100.00;95322.22;4935549;28;20059;-75
2023/01/18 05:11:25;;;;;;;1999.90;999.90;;;;;;;1.35;100.00;95321.69;4952804;28;20038;-75
2023/01/18 05:13:51;;;;;;;1999.90;999.90;;;;;;;1.33;100.00;95333.88;4953151;28;20057;-75
2023/01/18 05:16:19;;;;;;;1999.90;999.90;;;;;;;1.08;100.00;95349.47;4953252;28;20070;-74
2023/01/18 05:18:45;;;;;;;1999.90;999.90;;;;;;;0.96;100.00;95346.47;4953027;28;20051;-76
2023/01/18 05:21:11;;;;;;;1999.90;999.90;;;;;;;1.06;100.00;95343.59;4947345;29;20377;-76
2023/01/18 05:23:39;;;;;;;1999.90;999.90;;;;;;;1.25;100.00;95331.91;4934585;29;20039;-73
2023/01/18 05:26:12;;;;;;;1999.90;999.90;;;;;;;1.21;100.00;95333.59;4946052;29;20050;-74
2023/01/18 05:28:38;;;;;;;1999.90;999.90;;;;;;;1.22;100.00;95336.00;4952556;29;20121;-75
2023/01/18 05:31:03;;;;;;;1999.90;999.90;;;;;;;1.16;100.00;95342.56;4952264;29;20118;-74
2023/01/18 05:33:28;;;;;;;1999.90;999.90;;;;;;;1.23;100.00;95328.69;4952380;28;20066;-75
2023/01/18 05:35:54;;;;;;;1999.90;999.90;;;;;;;1.20;100.00;95315.84;4952360;28;20031;-75
2023/01/18 05:38:21;;;;;;;1999.90;999.90;;;;;;;1.16;100.00;95322.94;4952108;28;20085;-77
2023/01/18 05:40:48;;;;;;;1999.90;999.90;;;;;;;1.15;100.00;95340.19;4934859;29;20491;-76
2023/01/18 05:43:15;;;;;;;1999.90;999.90;;;;;;;1.16;100.00;95344.47;4951849;29;20035;-77
2023/01/18 05:45:41;;;;;;;1999.90;999.90;;;;;;;1.23;100.00;95350.22;4951102;29;20122;-74
2023/01/18 05:48:07;;;;;;;1999.90;999.90;;;;;;;1.23;100.00;95355.63;4952319;29;20436;-76
2023/01/18 05:50:32;;;;;;;1999.90;999.90;;;;;;;1.17;100.00;95340.66;4953239;29;20039;-76
2023/01/18 05:52:58;;;;;;;1999.90;999.90;;;;;;;1.08;100.00;95327.94;4952743;29;20050;-75
2023/01/18 05:55:25;;;;;;;1999.90;999.90;;;;;;;1.17;100.00;95340.66;4952151;29;20043;-75
2023/01/18 05:57:51;;;;;;;1999.90;999.90;;;;;;;1.20;100.00;95345.44;4952067;29;20027;-76
2023/01/18 06:00:17;;;;;;;1999.90;999.90;;;;;;;1.21;100.00;95352.44;4952725;29;20035;-74
2023/01/18 06:02:42;;;;;;;1999.90;999.90;;;;;;;1.18;100.00;95369.19;4953294;29;20459;-75
2023/01/18 06:05:07;;;;;;;1999.90;999.90;;;;;;;1.22;100.00;95364.81;4952159;29;20035;-76
2023/01/18 06:07:33;;;;;;;1999.90;999.90;;;;;;;1.21;100.00;95353.25;4952257;29;20032;-75
2023/01/18 06:09:58;;;;;;;1999.90;999.90;;;;;;;1.21;100.00;95363.19;4951839;29;20034;-76
2023/01/18 06:12:23;;;;;;;1999.90;999.90;;;;;;;1.29;100.00;95367.88;4951977;29;20024;-75
2023/01/18 06:14:49;;;;;;;1999.90;999.90;;;;;;;1.37;100.00;95372.56;4940057;29;20500;-73
2023/01/18 06:17:14;;;;;;;1999.90;999.90;;;;;;;1.45;100.00;95379.94;4936657;29;20106;-75
2023/01/18 06:19:40;;;;;;;1999.90;999.90;;;;;;;1.26;100.00;95382.72;4936558;29;20020;-75
2023/01/18 06:22:06;;;;;;;1999.90;999.90;;;;;;;1.27;100.00;95386.22;4938555;29;20070;-75
2023/01/18 06:24:31;;;;;;;1999.90;999.90;;;;;;;1.24;100.00;95393.00;4938815;29;20122;-75
2023/01/18 06:26:58;;;;;;;1999.90;999.90;;;;;;;1.24;100.00;95384.13;4937984;29;20380;-76
2023/01/18 06:29:23;;;;;;;1999.90;999.90;;;;;;;1.35;100.00;95385.50;4954939;28;20031;-75
2023/01/18 06:31:48;;;;;;;1999.90;999.90;;;;;;;1.30;100.00;95382.94;4957760;28;20035;-76
2023/01/18 06:34:13;;;;;;;1999.90;999.90;;;;;;;1.25;100.00;95396.50;4963407;28;20374;-76
2023/01/18 06:36:39;;;;;;;1999.90;999.90;;;;;;;1.04;100.00;95407.66;4955746;28;20122;-75
2023/01/18 06:39:05;;;;;;;1999.90;999.90;;;;;;;1.14;100.00;95400.47;4955412;29;20023;-76
2023/01/18 06:41:31;;;;;;;1999.90;999.90;;;;;;;1.16;100.00;95414.47;4955403;29;20027;-75
2023/01/18 06:43:56;;;;;;;1999.90;999.90;;;;;;;1.14;100.00;95420.13;4955112;29;20439;-77
2023/01/18 06:46:21;;;;;;;1999.90;999.90;;;;;;;1.20;100.00;95421.63;4955524;29;20082;-76
2023/01/18 06:48:47;;;;;;;1999.90;999.90;;;;;;;1.25;100.00;95440.38;4955232;29;20034;-76
2023/01/18 06:51:12;;;;;;;1999.90;999.90;;;;;;;1.32;100.00;95458.81;4955196;29;20078;-75
2023/01/18 06:53:38;;;;;;;1999.90;999.90;;;;;;;1.33;100.00;95452.34;4955417;29;20140;-75
2023/01/18 06:56:04;;;;;;;1999.90;999.90;;;;;;;1.48;100.00;95454.72;4954962;29;20027;-75
2023/01/18 06:58:31;;;;;;;1999.90;999.90;;;;;;;1.43;100.00;95431.41;4954332;29;20038;-75
2023/01/18 07:00:58;;;;;;;1999.90;999.90;;;;;;;1.33;100.00;95436.19;4937762;29;20063;-76
2023/01/18 07:03:25;;;;;;;1999.90;999.90;;;;;;;1.40;100.00;95445.47;4954925;29;20473;-75
2023/01/18 07:05:55;;;;;;;1999.90;999.90;;;;;;;1.55;100.00;95447.06;4954883;29;20495;-75
2023/01/18 07:08:21;;;;;;;1999.90;999.90;;;;;;;1.42;100.00;95442.47;4954833;29;20035;-75
2023/01/18 07:10:47;;;;;;;1999.90;999.90;;;;;;;1.50;100.00;95447.16;4953694;29;20078;-75
2023/01/18 07:13:13;;;;;;;1999.90;999.90;;;;;;;1.57;100.00;95461.00;4936065;29;20024;-74
2023/01/18 07:15:38;;;;;;;1999.90;999.90;;;;;;;1.73;100.00;95478.47;4954835;29;20038;-74
2023/01/18 07:18:04;;;;;;;1999.90;999.90;;;;;;;1.76;100.00;95477.88;4937387;29;20031;-74
2023/01/18 07:20:29;;;;;;;1999.90;999.90;;;;;;;1.82;100.00;95475.84;4955048;29;20023;-74
2023/01/18 07:22:54;;;;;;;1999.90;999.90;;;;;;;1.80;100.00;95488.84;4953668;29;20033;-74
2023/01/18 07:25:21;;;;;;;1999.90;999.90;;;;;;;1.99;100.00;95484.94;4956007;28;20031;-76
2023/01/18 07:27:50;;;;;;;1999.90;999.90;;;;;;;2.22;100.00;95496.59;4955709;29;20051;-74
2023/01/18 07:30:16;;;;;;;1999.90;999.90;;;;;;;2.35;100.00;95505.75;4954892;29;20043;-76
2023/01/18 07:32:51;;;;;;;1999.90;999.90;;;;;;;2.42;100.00;95506.09;4951661;29;20081;-76
2023/01/18 07:35:18;;;;;;;1999.90;999.90;;;;;;;2.43;100.00;95510.41;4953491;29;20134;-74
2023/01/18 07:37:49;;;;;;;1999.90;999.90;;;;;;;2.04;100.00;95501.00;4951447;28;20037;-73
2023/01/18 07:40:14;;;;;;;1999.90;999.90;;;;;;;2.08;100.00;95523.56;4953039;29;20051;-76
2023/01/18 07:42:40;;;;;;;1999.90;999.90;;;;;;;1.94;100.00;95520.06;4952951;28;20021;-75
2023/01/18 07:45:07;;;;;;;1999.90;999.90;;;;;;;1.91;100.00;95517.97;4960761;28;20023;-76
2023/01/18 07:47:34;;;;;;;1999.90;999.90;;;;;;;1.82;100.00;95516.28;4963700;28;21173;-76
2023/01/18 07:49:59;;;;;;;1999.90;999.90;;;;;;;1.81;100.00;95520.88;4954382;28;20031;-76
2023/01/18 07:52:24;;;;;;;1999.90;999.90;;;;;;;1.83;100.00;95521.38;4953648;29;20051;-76
2023/01/18 07:54:50;;;;;;;1999.90;999.90;;;;;;;1.85;100.00;95529.94;4936998;29;20031;-75
2023/01/18 07:57:15;;;;;;;1999.90;999.90;;;;;;;2.07;100.00;95543.50;4951497;29;20028;-77
2023/01/18 07:59:41;;;;;;;1999.90;999.90;;;;;;;2.17;100.00;95554.09;4936879;29;20055;-77
2023/01/18 08:02:11;;;;;;;1999.90;999.90;;;;;;;2.17;100.00;95550.59;4953809;29;20042;-77
2023/01/18 08:04:36;;;;;;;1999.90;999.90;;;;;;;2.22;100.00;95565.88;4953499;29;20027;-75
2023/01/18 08:07:01;;;;;;;1999.90;999.90;;;;;;;2.33;100.00;95567.25;4959896;28;20069;-74
2023/01/18 08:09:27;;;;;;;1999.90;999.90;;;;;;;2.34;100.00;95563.47;4960883;28;20069;-76
2023/01/18 08:11:52;;;;;;;1999.90;999.90;;;;;;;2.43;100.00;95567.03;4962696;28;20034;-75
2023/01/18 08:14:17;;;;;;;1999.90;999.90;;;;;;;2.33;100.00;95556.47;4961459;28;20079;-74
2023/01/18 08:16:43;;;;;;;1999.90;999.90;;;;;;;2.34;100.00;95566.16;4961650;28;20384;-75
2023/01/18 08:19:09;;;;;;;1999.90;999.90;;;;;;;2.48;100.00;95575.03;4965807;28;20039;-74
2023/01/18 08:21:34;;;;;;;1999.90;999.90;;;;;;;2.65;100.00;95577.91;4961161;28;20038;-74
2023/01/18 08:23:59;;;;;;;1999.90;999.90;;;;;;;2.96;100.00;95586.09;4959193;28;20015;-75
2023/01/18 08:26:25;;;;;;;1999.90;999.90;;;;;;;3.07;100.00;95599.03;4942752;28;20547;-76
2023/01/18 08:28:50;;;;;;;1999.90;999.90;;;;;;;2.98;100.00;95617.06;4944484;28;20102;-75
2023/01/18 08:31:18;;;;;;;1999.90;999.90;;;;;;;2.65;100.00;95612.97;4960038;28;20062;-76
2023/01/18 08:33:45;;;;;;;1999.90;999.90;;;;;;;2.51;100.00;95618.38;4962465;28;20592;-75
2023/01/18 08:36:19;;;;;;;1999.90;999.90;;;;;;;2.52;100.00;95629.97;4959363;28;20485;-76
2023/01/18 08:38:58;;;;;;;1999.90;999.90;;;;;;;2.62;100.00;95643.25;4939547;29;20668;-75
2023/01/18 08:41:27;;;;;;;1999.90;999.90;;;;;;;2.68;100.00;95644.75;4958711;28;20043;-75
2023/01/18 08:43:57;;;;;;;1999.90;999.90;;;;;;;2.63;100.00;95631.38;4953026;29;20050;-75
2023/01/18 08:46:23;;;;;;;1999.90;999.90;;;;;;;2.63;100.00;95636.78;4955710;28;20093;-76
2023/01/18 08:48:53;;;;;;;1999.90;999.90;;;;;;;2.70;100.00;95637.94;4952094;29;20447;-76
2023/01/18 08:51:20;;;;;;;1999.90;999.90;;;;;;;3.25;100.00;95632.41;4952792;29;20038;-76
2023/01/18 08:53:46;;;;;;;1999.90;999.90;;;;;;;3.86;100.00;95637.09;4952847;29;20043;-75
2023/01/18 08:56:11;;;;;;;1999.90;999.90;;;;;;;4.52;100.00;95644.22;4953197;29;20031;-75
2023/01/18 08:58:37;;;;;;;1999.90;999.90;;;;;;;4.01;100.00;95666.44;4952860;29;20486;-75
2023/01/18 09:01:09;;;;;;;1999.90;999.90;;;;;;;3.74;100.00;95663.91;4952806;29;20042;-75
2023/01/18 09:03:35;;;;;;;1999.90;999.90;;;;;;;3.89;100.00;95671.63;4953001;29;20046;-77
2023/01/18 09:06:03;;;;;;;1999.90;999.90;;;;;;;3.70;100.00;95668.31;4933406;29;20027;-76
2023/01/18 09:08:28;;;;;;;1999.90;999.90;;;;;;;3.78;100.00;95673.00;4953024;29;20015;-77
2023/01/18 09:10:54;;;;;;;1999.90;999.90;;;;;;;3.56;100.00;95675.69;4953270;29;20109;-77
2023/01/18 09:13:19;;;;;;;1999.90;999.90;;;;;;;3.91;100.00;95687.56;4935955;29;20038;-77
2023/01/18 09:15:47;;;;;;;1999.90;999.90;;;;;;;4.73;100.00;95676.97;4950064;29;20084;-75
2023/01/18 09:18:15;;;;;;;1999.90;999.90;;;;;;;5.29;100.00;95687.72;4933373;29;20397;-78
2023/01/18 09:20:42;;;;;;;1999.90;999.90;;;;;;;6.08;100.00;95684.69;4916696;29;20040;-76
2023/01/18 09:23:09;;;;;;;1999.90;999.90;;;;;;;6.50;100.00;95701.19;4934234;29;20082;-76
2023/01/18 09:25:35;;;;;;;1999.90;999.90;;;;;;;6.36;100.00;95691.31;4934400;29;20031;-76
2023/01/18 09:28:03;;;;;;;1999.90;999.90;;;;;;;6.22;100.00;95717.88;4943510;29;20034;-77
2023/01/18 09:30:29;;;;;;;1999.90;999.90;;;;;;;5.00;100.00;95713.81;4953378;29;20035;-77
2023/01/18 09:32:56;;;;;;;1999.90;999.90;;;;;;;4.75;100.00;95713.44;4953263;29;20023;-79
2023/01/18 09:35:21;;;;;;;1999.90;999.90;;;;;;;4.63;100.00;95715.94;4937468;29;20497;-76
2023/01/18 09:37:46;;;;;;;1999.90;999.90;;;;;;;4.57;100.00;95719.91;4954594;29;20046;-75
2023/01/18 09:40:18;;;;;;;1999.90;999.90;;;;;;;4.44;100.00;95717.28;4952812;29;20019;-80
2023/01/18 09:42:46;;;;;;;1999.90;999.90;;;;;;;4.57;100.00;95724.50;4952272;29;20029;-79
2023/01/18 09:45:29;;;;;;;1999.90;999.90;;;;;;;4.41;100.00;95728.72;4952304;29;20033;-82
2023/01/18 09:48:38;;;;;;;1999.90;999.90;;;;;;;4.27;100.00;95737.72;4952067;29;20024;-78
2023/01/18 09:51:11;;;;;;;1999.90;999.90;;;;;;;4.42;100.00;95747.34;4951972;29;20042;-78
2023/01/18 09:53:42;;;;;;;1999.90;999.90;;;;;;;4.41;100.00;95744.97;4934878;29;20138;-78
2023/01/18 09:56:51;;;;;;;1999.90;999.90;;;;;;;4.08;100.00;95758.75;4952419;29;20035;-79
2023/01/18 09:59:31;;;;;;;1999.90;999.90;;;;;;;3.77;100.00;95776.81;4873989;29;20061;-79
2023/01/18 10:02:01;;;;;;;1999.90;999.90;;;;;;;3.61;100.00;95762.84;4873868;29;20040;-84
2023/01/18 10:04:35;;;;;;;1999.90;999.90;;;;;;;4.21;100.00;95776.03;4922497;29;20036;-77
2023/01/18 10:07:06;;;;;;;1999.90;999.90;;;;;;;4.61;100.00;95772.28;4952206;29;20114;-80
2023/01/18 10:09:37;;;;;;;1999.90;999.90;;;;;;;4.73;100.00;95774.44;4944546;29;20035;-80
2023/01/18 10:12:32;;;;;;;1999.90;999.90;;;;;;;4.79;100.00;95776.66;4932713;29;20084;-79
2023/01/18 10:15:09;;;;;;;1999.90;999.90;;;;;;;4.49;100.00;95773.97;4924767;29;20523;-84
2023/01/18 10:17:42;;;;;;;1999.90;999.90;;;;;;;4.38;100.00;95767.22;4933569;29;20032;-87
2023/01/18 10:20:31;;;;;;;1999.90;999.90;;;;;;;4.10;100.00;95767.34;4933052;29;20086;-82
2023/01/18 10:23:03;;;;;;;1999.90;999.90;;;;;;;4.21;100.00;95757.91;4933211;29;20063;-82
2023/01/18 10:25:55;;;;;;;1999.90;999.90;;;;;;;4.40;100.00;95779.34;4933324;29;20086;-82
2023/01/18 10:28:39;;;;;;;1999.90;999.90;;;;;;;4.50;100.00;95780.97;4928894;29;20487;-81
2023/01/18 10:31:37;;;;;;;1999.90;999.90;;;;;;;4.43;100.00;95783.31;4940423;29;20098;-79
2023/01/18 10:34:11;;;;;;;1999.90;999.90;;;;;;;4.58;100.00;95769.41;4951796;29;20042;-79
2023/01/18 10:36:42;;;;;;;1999.90;999.90;;;;;;;4.54;100.00;95763.03;4952711;29;20102;-85
2023/01/18 10:39:26;;;;;;;1999.90;999.90;;;;;;;4.68;100.00;95766.41;4936317;29;20442;-77
2023/01/18 10:41:56;;;;;;;1999.90;999.90;;;;;;;4.58;100.00;95766.69;4951464;29;20373;-84
2023/01/18 10:44:22;;;;;;;1999.90;999.90;;;;;;;4.69;100.00;95757.19;4953309;29;20058;-87
2023/01/18 10:46:48;;;;;;;1999.90;999.90;;;;;;;4.80;100.00;95764.72;4951486;29;20023;-84
2023/01/18 10:49:32;;;;;;;1999.90;999.90;;;;;;;4.88;100.00;95765.88;4951486;29;20086;-85
2023/01/18 10:52:21;;;;;;;1999.90;999.90;;;;;;;4.91;100.00;95759.84;4950543;29;20026;-85
2023/01/18 10:55:01;;;;;;;1999.90;999.90;;;;;;;4.95;100.00;95758.09;4937418;29;20624;-85
2023/01/18 10:57:35;;;;;;;1999.90;999.90;;;;;;;4.80;100.00;95761.22;4951637;29;20082;-87
2023/01/18 11:00:04;;;;;;;1999.90;999.90;;;;;;;4.69;100.00;95774.25;4953553;28;20074;-87
2023/01/18 11:02:34;;;;;;;1999.90;999.90;;;;;;;4.58;100.00;95785.63;4941366;29;20453;-86
2023/01/18 11:05:22;;;;;;;1999.90;999.90;;;;;;;4.35;100.00;95771.38;4969538;29;20095;-85
2023/01/18 11:08:11;;;;;;;1999.90;999.90;;;;;;;4.39;100.00;95779.63;4975296;29;20035;-82
2023/01/18 11:10:37;;;;;;;1999.90;999.90;;;;;;;4.69;100.00;95785.06;4968745;29;20096;-91
2023/01/18 11:13:03;;;;;;;1999.90;999.90;;;;;;;4.92;100.00;95785.78;4962956;29;20054;-88
2023/01/18 11:15:29;;;;;;;1999.90;999.90;;;;;;;5.22;100.00;95798.50;4965619;29;20160;-90
2023/01/18 11:17:56;;;;;;;1999.90;999.90;;;;;;;4.91;100.00;95795.06;4961666;29;20034;-93
2023/01/18 11:20:39;;;;;;;1999.90;999.90;;;;;;;4.43;100.00;95788.75;4963741;29;20059;-83
2023/01/18 11:23:18;;;;;;;1999.90;999.90;;;;;;;4.11;100.00;95793.31;4964436;29;20460;-88
2023/01/18 11:26:04;;;;;;;1999.90;999.90;;;;;;;3.89;100.00;95784.38;4961604;29;20484;-89
2023/01/18 11:28:46;;;;;;;1999.90;999.90;;;;;;;3.91;100.00;95796.50;4969943;29;20095;-85
2023/01/18 11:31:20;;;;;;;1999.90;999.90;;;;;;;3.93;100.00;95786.19;4966542;29;20098;-88
2023/01/18 11:34:02;;;;;;;1999.90;999.90;;;;;;;3.89;100.00;95790.59;4965393;29;20027;-88
2023/01/18 11:36:36;;;;;;;1999.90;999.90;;;;;;;3.96;100.00;95787.47;4965836;29;20069;-80